Cedar Lake, MI (48812)

8:01 AM EDT on July 28, 2016 (GMT -0400)
Edmore | | Change Station

Elev 912 ft 43.42 °N, 84.98 °W | Updated 18 seconds ago

Mostly Cloudy
Mostly Cloudy
67.1 °F
Feels Like 67.1 °F
N
0.2
Wind Variable Wind from NW
Gusts 2.5 mph

Today
High -- | Low -- °F
--% Chance of Precip.
Yesterday
High -- | Low -- °F
Precip. -- in
Pressure 29.97 in
Visibility 7.0 miles
Clouds Mostly Cloudy 600 ft
Mostly Cloudy 2600 ft
Dew Point 67 °F
Humidity 99%
Rainfall 0.00 in
Snow Depth Not available.
6:26 AM 9:06 PM
Waning Crescent, 33% visible
METAR KAMN 281150Z AUTO 01004KT 7SM BKN006 BKN026 19/19 A2997 RMK AO2 T01940194
Pressure 29.97 in
Visibility 7.0 miles
Clouds Mostly Cloudy 600 ft
Mostly Cloudy 2600 ft
Dew Point 67 °F
Humidity 99%
Rainfall 0.00 in
Snow Depth Not available.
6:26 AM 9:06 PM
Waning Crescent, 33% visible
METAR KAMN 281150Z AUTO 01004KT 7SM BKN006 BKN026 19/19 A2997 RMK AO2 T01940194

10-Day Weather Forecast

Almanac

Astronomy

Jul. 28, 2016 Rise Set
Actual Time
Civil Twilight
Nautical Twilight
Astronomical Twilight
Moon
Length of Visible Light
Length of Day
Tomorrow will be .
, % of the Moon is Illuminated

Today's Extremes

State Highs State Lows

Community

WunderPhotos

Upload Photos

1,928,098 photos uploaded!

WunderBlog® & News

Nearby

Air Quality

  Air Quality AQ Index Pollutant
Not available.

Snow Depth

Station Depth Elevation

Earthquake Activity

City Distance Mag. Time & Date
Minimum magnitude displayed is 2.5.

Coastal Water Temperatures

Place Temperature

Stations

Nearby Weather Stations

Station Location Temp. Windchill Dew Point Humidity Wind Precip. Elev Updated Type
                   

Watches & Warnings

There are currently no watches in effect.